createdAt,value
2019-05-25T00:02:05.238Z,9.60
2019-05-25T00:04:32.282Z,9.60
2019-05-25T00:06:59.272Z,9.70
2019-05-25T00:09:27.363Z,10.03
2019-05-25T00:11:54.449Z,10.58
2019-05-25T00:14:21.565Z,10.53
2019-05-25T00:16:49.077Z,9.73
2019-05-25T00:19:16.272Z,10.68
2019-05-25T00:21:45.290Z,10.28
2019-05-25T00:24:12.969Z,10.20
2019-05-25T00:26:40.840Z,8.45
2019-05-25T00:29:08.488Z,8.23
2019-05-25T00:31:35.536Z,7.97
2019-05-25T00:34:02.812Z,8.43
2019-05-25T00:36:30.013Z,8.90
2019-05-25T00:38:58.412Z,8.60
2019-05-25T00:41:25.636Z,9.60
2019-05-25T00:43:53.659Z,8.75
2019-05-25T00:46:20.652Z,9.10
2019-05-25T00:48:47.829Z,9.00
2019-05-25T00:51:15.094Z,8.38
2019-05-25T00:53:43.361Z,8.90
2019-05-25T00:56:10.931Z,9.45
2019-05-25T00:58:38.134Z,9.88
2019-05-25T01:01:05.479Z,9.45
2019-05-25T01:03:32.781Z,9.60
2019-05-25T01:06:01.500Z,11.05
2019-05-25T01:08:28.716Z,12.65
2019-05-25T01:10:56.160Z,13.10
2019-05-25T01:13:23.344Z,14.50
2019-05-25T01:15:50.435Z,13.35
2019-05-25T01:18:17.621Z,14.58
2019-05-25T01:20:46.367Z,14.03
2019-05-25T01:23:13.568Z,14.23
2019-05-25T01:25:41.100Z,13.72
2019-05-25T01:28:11.253Z,12.80
2019-05-25T01:30:38.658Z,13.30
2019-05-25T01:33:06.256Z,14.87
2019-05-25T01:35:33.512Z,14.83
2019-05-25T01:38:02.584Z,14.90
2019-05-25T01:40:29.538Z,15.25
2019-05-25T01:42:57.029Z,15.38
2019-05-25T01:45:24.347Z,15.93
2019-05-25T01:47:51.504Z,15.72
2019-05-25T01:50:18.427Z,16.87
2019-05-25T01:52:45.565Z,15.75
2019-05-25T01:55:14.631Z,16.00
2019-05-25T01:57:41.605Z,16.52
2019-05-25T02:00:09.210Z,16.17
2019-05-25T02:02:36.452Z,14.83
2019-05-25T02:05:03.976Z,15.28
2019-05-25T02:07:33.077Z,13.98
2019-05-25T02:10:00.727Z,13.88
2019-05-25T02:12:27.828Z,13.45
2019-05-25T02:14:54.924Z,12.68
2019-05-25T02:17:22.125Z,12.00
2019-05-25T02:19:49.684Z,11.83
2019-05-25T02:22:16.813Z,11.38
2019-05-25T02:24:44.302Z,11.10
2019-05-25T02:27:11.292Z,11.48
2019-05-25T02:29:40.074Z,12.25
2019-05-25T02:32:07.460Z,11.28
2019-05-25T02:34:35.042Z,11.70
2019-05-25T02:37:02.052Z,12.33
2019-05-25T02:39:29.221Z,12.20
2019-05-25T02:41:56.396Z,12.23
2019-05-25T02:44:23.527Z,12.25
2019-05-25T02:46:51.942Z,12.20
2019-05-25T02:49:19.293Z,12.58
2019-05-25T02:51:46.672Z,13.03
2019-05-25T02:54:13.819Z,13.15
2019-05-25T02:56:41.006Z,13.05
2019-05-25T02:59:08.149Z,13.28
2019-05-25T03:01:35.296Z,13.30
2019-05-25T03:04:02.540Z,13.45
2019-05-25T03:06:29.729Z,14.47
2019-05-25T03:08:56.824Z,14.58
2019-05-25T03:11:24.007Z,13.58
2019-05-25T03:13:51.118Z,14.00
2019-05-25T03:16:19.233Z,14.15
2019-05-25T03:18:46.473Z,14.28
2019-05-25T03:21:13.595Z,14.45
2019-05-25T03:23:41.280Z,13.53
2019-05-25T03:26:08.669Z,12.95
2019-05-25T03:28:35.954Z,13.28
2019-05-25T03:31:03.058Z,13.38
2019-05-25T03:33:30.212Z,13.53
2019-05-25T03:35:57.485Z,13.70
2019-05-25T03:38:25.293Z,13.35
2019-05-25T03:40:52.433Z,13.25
2019-05-25T03:43:19.509Z,13.18
2019-05-25T03:45:46.672Z,13.45
2019-05-25T03:48:13.790Z,13.98
2019-05-25T03:50:41.903Z,13.03
2019-05-25T03:53:09.514Z,13.30
2019-05-25T03:55:36.589Z,14.25
2019-05-25T03:58:03.753Z,13.43
2019-05-25T04:00:32.297Z,12.53
2019-05-25T04:02:59.727Z,11.97
2019-05-25T04:05:26.904Z,10.45
2019-05-25T04:07:54.348Z,10.05
2019-05-25T04:10:21.546Z,10.65
2019-05-25T04:12:48.652Z,10.00
2019-05-25T04:15:16.154Z,9.63
2019-05-25T04:20:09.595Z,10.50
2019-05-25T04:22:38.719Z,9.60
2019-05-25T04:25:05.838Z,9.88
2019-05-25T04:27:33.370Z,10.40
2019-05-25T04:30:00.562Z,9.13
2019-05-25T04:32:27.721Z,8.50
2019-05-25T04:34:55.270Z,8.23
2019-05-25T04:37:22.833Z,8.25
2019-05-25T04:39:50.397Z,8.13
2019-05-25T04:42:17.960Z,7.87
2019-05-25T04:44:46.999Z,8.25
2019-05-25T04:47:26.656Z,7.67
2019-05-25T04:49:43.188Z,7.85
2019-05-25T04:52:10.416Z,7.45
2019-05-25T04:54:37.613Z,7.60
2019-05-25T04:57:05.018Z,7.85
2019-05-25T04:59:32.208Z,7.90
2019-05-25T05:01:59.420Z,7.70
2019-05-25T05:04:27.135Z,7.87
2019-05-25T05:06:54.474Z,7.83
2019-05-25T05:09:21.924Z,8.00
2019-05-25T05:11:49.359Z,8.33
2019-05-25T05:14:18.521Z,8.70
2019-05-25T05:16:45.610Z,9.15
2019-05-25T05:19:12.752Z,8.70
2019-05-25T05:21:39.821Z,8.88
2019-05-25T05:24:06.944Z,8.63
2019-05-25T05:26:34.219Z,8.80
2019-05-25T05:29:03.487Z,8.75
2019-05-25T05:31:30.688Z,8.48
2019-05-25T05:33:59.290Z,8.23
2019-05-25T05:36:27.944Z,8.05
2019-05-25T05:38:55.384Z,8.75
2019-05-25T05:41:23.006Z,8.10
2019-05-25T05:43:51.662Z,9.98
2019-05-25T05:46:19.715Z,8.88
2019-05-25T05:48:48.901Z,8.60
2019-05-25T05:51:18.199Z,8.95
2019-05-25T05:53:45.781Z,9.18
2019-05-25T05:56:14.526Z,9.38
2019-05-25T05:58:41.480Z,9.00
2019-05-25T06:01:08.716Z,9.43
2019-05-25T06:03:35.814Z,10.20
2019-05-25T06:06:04.757Z,9.73
2019-05-25T06:08:31.959Z,9.80
2019-05-25T06:10:59.217Z,10.75
2019-05-25T06:13:26.440Z,10.30
2019-05-25T06:15:55.911Z,9.40
2019-05-25T06:18:22.973Z,9.30
2019-05-25T06:20:51.872Z,10.78
2019-05-25T06:23:19.529Z,10.28
2019-05-25T06:25:47.239Z,10.32
2019-05-25T06:28:17.864Z,10.20
2019-05-25T06:30:44.280Z,10.05
2019-05-25T06:33:11.402Z,9.73
2019-05-25T06:35:38.577Z,10.98
2019-05-25T06:38:05.596Z,9.48
2019-05-25T06:40:32.766Z,11.28
2019-05-25T06:42:59.933Z,11.30
2019-05-25T06:45:27.768Z,10.23
2019-05-25T06:47:54.824Z,10.13
2019-05-25T06:50:22.377Z,10.40
2019-05-25T06:52:50.105Z,10.32
2019-05-25T06:55:17.283Z,12.37
2019-05-25T06:57:44.455Z,11.20
2019-05-25T07:00:13.643Z,10.45
2019-05-25T07:02:40.977Z,10.48
2019-05-25T07:05:08.525Z,11.18
2019-05-25T07:07:35.828Z,11.35
2019-05-25T07:10:03.388Z,10.55
2019-05-25T07:12:30.591Z,10.13
2019-05-25T07:15:00.326Z,10.18
2019-05-25T07:17:27.890Z,10.80
2019-05-25T07:19:55.538Z,10.88
2019-05-25T07:22:22.717Z,10.60
2019-05-25T07:24:50.229Z,10.55
2019-05-25T07:27:19.426Z,11.30
2019-05-25T07:29:46.582Z,10.43
2019-05-25T07:32:14.050Z,11.28
2019-05-25T07:34:41.232Z,18.80
2019-05-25T07:37:08.756Z,10.32
2019-05-25T07:39:37.231Z,10.50
2019-05-25T07:42:04.419Z,11.00
2019-05-25T07:44:31.557Z,10.13
2019-05-25T07:46:58.686Z,10.72
2019-05-25T07:49:25.858Z,10.20
2019-05-25T07:51:53.013Z,10.32
2019-05-25T07:54:20.224Z,10.63
2019-05-25T07:56:47.421Z,10.25
2019-05-25T07:59:14.940Z,9.73
2019-05-25T08:01:42.456Z,10.80
2019-05-25T08:04:09.597Z,9.93
2019-05-25T08:06:37.152Z,10.48
2019-05-25T08:09:05.912Z,11.95
2019-05-25T08:11:32.885Z,11.55
2019-05-25T08:14:00.092Z,11.22
2019-05-25T08:16:27.561Z,11.28
2019-05-25T08:18:54.649Z,11.90
2019-05-25T08:21:22.298Z,11.15
2019-05-25T08:23:49.947Z,10.70
2019-05-25T08:26:18.312Z,11.83
2019-05-25T08:28:45.764Z,10.43
2019-05-25T08:31:13.363Z,8.90
2019-05-25T08:33:40.580Z,9.38
2019-05-25T08:36:07.851Z,8.78
2019-05-25T08:38:34.985Z,10.35
2019-05-25T08:41:04.281Z,11.50
2019-05-25T08:43:31.199Z,10.00
2019-05-25T08:45:58.400Z,8.83
2019-05-25T08:48:25.333Z,11.15
2019-05-25T08:50:52.579Z,6.75
2019-05-25T08:53:31.154Z,7.20
2019-05-25T08:55:49.340Z,6.00
2019-05-25T08:58:16.497Z,7.92
2019-05-25T09:00:43.704Z,7.65
2019-05-25T09:03:11.093Z,7.60
2019-05-25T09:10:33.569Z,7.62
2019-05-25T09:13:00.697Z,5.95
2019-05-25T09:15:28.135Z,7.60
2019-05-25T09:17:55.932Z,6.80
2019-05-25T09:20:24.556Z,10.40
2019-05-25T09:22:51.785Z,7.10
2019-05-25T09:25:20.422Z,7.33
2019-05-25T09:27:47.503Z,8.10
2019-05-25T09:30:14.779Z,30.10
2019-05-25T09:32:43.402Z,10.50
2019-05-25T09:35:13.199Z,7.55
2019-05-25T09:37:40.265Z,7.50
2019-05-25T09:40:08.186Z,8.58
2019-05-25T09:42:35.441Z,7.33
2019-05-25T09:45:02.906Z,7.20
2019-05-25T09:47:30.439Z,6.60
2019-05-25T09:49:57.583Z,7.17
2019-05-25T09:52:25.045Z,6.72
2019-05-25T09:54:55.621Z,6.87
2019-05-25T09:57:21.602Z,5.63
2019-05-25T09:59:48.857Z,5.67
2019-05-25T10:02:16.541Z,5.50
2019-05-25T10:04:44.592Z,6.55
2019-05-25T10:07:12.213Z,6.37
2019-05-25T10:09:40.228Z,6.05
2019-05-25T10:12:07.636Z,6.42
2019-05-25T10:14:34.716Z,5.78
2019-05-25T10:17:01.724Z,6.83
2019-05-25T10:19:28.929Z,7.40
2019-05-25T10:21:59.245Z,7.12
2019-05-25T10:24:26.755Z,8.18
2019-05-25T10:26:53.865Z,7.45
2019-05-25T10:29:36.005Z,7.45
2019-05-25T10:31:50.424Z,7.00
2019-05-25T10:34:17.513Z,6.40
2019-05-25T10:36:44.694Z,5.35
2019-05-25T10:39:12.364Z,5.33
2019-05-25T10:41:39.568Z,6.62
2019-05-25T10:44:06.757Z,6.37
2019-05-25T10:46:34.586Z,6.00
2019-05-25T10:49:01.870Z,6.55
2019-05-25T10:51:29.099Z,5.67
2019-05-25T10:53:56.373Z,6.08
2019-05-25T10:56:23.492Z,6.00
2019-05-25T10:58:53.347Z,5.05
2019-05-25T11:01:22.455Z,5.10
2019-05-25T11:03:49.600Z,5.08
2019-05-25T11:06:18.758Z,5.47
2019-05-25T11:08:46.096Z,5.62
2019-05-25T11:11:14.527Z,3.25
2019-05-25T11:13:41.840Z,4.97
2019-05-25T11:16:09.023Z,5.03
2019-05-25T11:18:36.273Z,4.55
2019-05-25T11:21:04.931Z,5.12
2019-05-25T11:23:33.455Z,4.62
2019-05-25T11:26:01.066Z,4.80
2019-05-25T11:28:28.549Z,5.35
2019-05-25T11:30:55.927Z,5.25
2019-05-25T11:33:23.462Z,5.92
2019-05-25T11:35:50.511Z,5.12
2019-05-25T11:38:17.971Z,5.40
2019-05-25T11:40:45.180Z,5.40
2019-05-25T11:43:12.798Z,5.75
2019-05-25T11:45:39.895Z,4.12
2019-05-25T11:48:07.192Z,3.98
2019-05-25T11:50:34.722Z,4.40
2019-05-25T11:53:05.644Z,4.05
2019-05-25T11:55:31.185Z,4.20
2019-05-25T11:58:00.254Z,5.78
2019-05-25T12:00:27.470Z,4.42
2019-05-25T12:02:54.847Z,4.50
2019-05-25T12:05:21.864Z,4.67
2019-05-25T12:07:49.493Z,6.08
2019-05-25T12:10:17.225Z,4.22
2019-05-25T12:12:45.530Z,4.30
2019-05-25T12:15:14.417Z,4.30
2019-05-25T12:17:41.533Z,12.93
2019-05-25T12:20:08.898Z,4.45
2019-05-25T12:22:35.910Z,4.25
2019-05-25T12:25:03.824Z,4.45
2019-05-25T12:27:30.957Z,4.28
2019-05-25T12:29:58.157Z,5.58
2019-05-25T12:32:25.378Z,4.72
2019-05-25T12:34:52.789Z,4.80
2019-05-25T12:37:19.996Z,4.28
2019-05-25T12:39:47.143Z,5.50
2019-05-25T12:42:14.364Z,4.92
2019-05-25T12:44:41.598Z,4.92
2019-05-25T12:47:08.708Z,3.65
2019-05-25T12:49:50.297Z,3.00
2019-05-25T12:52:05.163Z,3.50
2019-05-25T12:54:33.524Z,3.00
2019-05-25T12:57:02.792Z,2.77
2019-05-25T12:59:29.979Z,2.40
2019-05-25T13:01:59.329Z,2.30
2019-05-25T13:04:26.541Z,2.97
2019-05-25T13:06:54.087Z,2.70
2019-05-25T13:09:21.772Z,2.83
2019-05-25T13:11:48.961Z,2.40
2019-05-25T13:14:17.792Z,2.00
2019-05-25T13:16:45.016Z,2.15
2019-05-25T13:19:12.184Z,2.47
2019-05-25T13:21:39.719Z,2.30
2019-05-25T13:24:07.187Z,2.55
2019-05-25T13:26:34.341Z,2.45
2019-05-25T13:29:01.586Z,2.30
2019-05-25T13:31:28.583Z,3.47
2019-05-25T13:33:56.489Z,2.90
2019-05-25T13:36:24.078Z,2.40
2019-05-25T13:38:51.609Z,2.10
2019-05-25T13:41:19.010Z,2.37
2019-05-25T13:43:50.080Z,2.08
2019-05-25T13:46:17.187Z,2.00
2019-05-25T13:48:44.702Z,1.95
2019-05-25T13:51:11.710Z,4.78
2019-05-25T13:53:38.620Z,1.82
2019-05-25T13:56:06.331Z,1.95
2019-05-25T13:58:33.937Z,1.90
2019-05-25T14:01:02.764Z,1.90
2019-05-25T14:03:30.590Z,3.92
2019-05-25T14:05:57.962Z,2.40
2019-05-25T14:08:25.073Z,2.60
2019-05-25T14:10:52.569Z,2.40
2019-05-25T14:13:20.005Z,3.30
2019-05-25T14:15:47.488Z,2.42
2019-05-25T14:18:14.861Z,3.95
2019-05-25T14:20:45.026Z,3.60
2019-05-25T14:23:12.103Z,4.40
2019-05-25T14:25:39.085Z,3.33
2019-05-25T14:28:06.281Z,3.22
2019-05-25T14:30:33.417Z,3.12
2019-05-25T14:33:00.917Z,3.20
2019-05-25T14:37:56.434Z,5.25
2019-05-25T14:40:23.359Z,3.15
2019-05-25T14:42:51.326Z,2.90
2019-05-25T14:45:18.523Z,2.45
2019-05-25T14:47:46.843Z,2.72
2019-05-25T14:50:14.237Z,2.60
2019-05-25T14:52:43.375Z,4.50
2019-05-25T14:55:11.083Z,2.27
2019-05-25T14:57:38.275Z,2.37
2019-05-25T15:00:05.796Z,2.47
2019-05-25T15:02:33.230Z,2.70
2019-05-25T15:05:00.786Z,2.80
2019-05-25T15:07:28.255Z,2.80
2019-05-25T15:09:56.795Z,2.37
2019-05-25T15:14:52.045Z,2.27
2019-05-25T15:17:19.132Z,2.60
2019-05-25T15:19:46.256Z,2.52
2019-05-25T15:22:13.388Z,2.55
2019-05-25T15:24:41.889Z,2.55
2019-05-25T15:27:10.980Z,2.23
2019-05-25T15:29:38.768Z,2.00
2019-05-25T15:32:19.059Z,2.37
2019-05-25T15:34:35.317Z,2.37
2019-05-25T15:37:02.437Z,2.53
2019-05-25T15:41:58.233Z,2.10
2019-05-25T15:44:28.001Z,2.10
2019-05-25T15:46:55.054Z,2.50
2019-05-25T15:49:32.506Z,2.60
2019-05-25T15:51:52.047Z,2.20
2019-05-25T15:54:19.277Z,2.40
2019-05-25T15:56:46.480Z,2.33
2019-05-25T15:59:14.092Z,2.62
2019-05-25T16:01:43.201Z,2.40
2019-05-25T16:04:10.453Z,2.50
2019-05-25T16:06:39.823Z,2.45
2019-05-25T16:09:06.954Z,2.00
2019-05-25T16:11:34.125Z,2.27
2019-05-25T16:14:01.264Z,2.20
2019-05-25T16:16:30.112Z,2.20
2019-05-25T16:18:57.697Z,2.30
2019-05-25T16:21:24.880Z,2.58
2019-05-25T16:23:52.503Z,2.33
2019-05-25T16:26:19.667Z,2.33
2019-05-25T16:28:49.125Z,2.33
2019-05-25T16:31:16.629Z,2.62
2019-05-25T16:33:43.625Z,3.20
2019-05-25T16:36:10.808Z,2.50
2019-05-25T16:38:38.875Z,1.80
2019-05-25T16:41:05.959Z,3.12
2019-05-25T16:43:33.366Z,2.92
2019-05-25T16:46:00.634Z,2.12
2019-05-25T16:48:27.580Z,3.08
2019-05-25T16:50:56.599Z,3.12
2019-05-25T16:53:23.651Z,3.02
2019-05-25T16:55:54.394Z,3.12
2019-05-25T16:58:19.675Z,3.08
2019-05-25T17:00:46.833Z,3.27
2019-05-25T17:03:27.606Z,3.05
2019-05-25T17:05:43.710Z,3.40
2019-05-25T17:08:10.938Z,3.65
2019-05-25T17:10:38.203Z,3.47
2019-05-25T17:13:06.284Z,3.77
2019-05-25T17:15:33.529Z,3.27
2019-05-25T17:18:04.347Z,3.50
2019-05-25T17:20:29.558Z,4.72
2019-05-25T17:22:58.425Z,5.87
2019-05-25T17:25:26.145Z,7.15
2019-05-25T17:27:53.183Z,6.20
2019-05-25T17:30:41.326Z,5.55
2019-05-25T17:33:08.525Z,7.35
2019-05-25T17:35:35.840Z,6.30
2019-05-25T17:38:03.088Z,6.62
2019-05-25T17:40:30.180Z,6.20
2019-05-25T17:47:51.286Z,5.65
2019-05-25T17:50:18.536Z,5.95
2019-05-25T17:52:46.162Z,6.10
2019-05-25T17:55:13.481Z,5.58
2019-05-25T17:57:40.881Z,5.30
2019-05-25T18:00:08.299Z,5.30
2019-05-25T18:02:35.314Z,5.40
2019-05-25T18:05:02.495Z,5.33
2019-05-25T18:07:29.797Z,5.42
2019-05-25T18:09:56.815Z,5.55
2019-05-25T18:12:23.979Z,5.22
2019-05-25T18:14:51.309Z,5.10
2019-05-25T18:17:18.923Z,5.35
2019-05-25T18:19:46.020Z,4.87
2019-05-25T18:22:13.459Z,5.40
2019-05-25T18:24:40.539Z,5.25
2019-05-25T18:27:08.910Z,5.25
2019-05-25T18:29:36.507Z,5.58
2019-05-25T18:32:04.200Z,5.78
2019-05-25T18:34:33.292Z,5.12
2019-05-25T18:37:00.856Z,5.78
2019-05-25T18:39:30.099Z,6.03
2019-05-25T18:44:23.549Z,5.50
2019-05-25T18:49:17.125Z,5.62
2019-05-25T18:51:44.343Z,5.30
2019-05-25T18:54:11.529Z,5.20
2019-05-25T18:56:38.710Z,5.92
2019-05-25T18:59:06.263Z,5.90
2019-05-25T19:01:34.384Z,6.30
2019-05-25T19:04:01.598Z,5.85
2019-05-25T19:06:30.633Z,5.17
2019-05-25T19:08:57.795Z,4.40
2019-05-25T19:11:25.316Z,4.90
2019-05-25T19:13:54.364Z,4.72
2019-05-25T19:16:22.315Z,4.40
2019-05-25T19:18:50.434Z,4.20
2019-05-25T19:21:18.371Z,4.40
2019-05-25T19:23:45.340Z,4.47
2019-05-25T19:26:12.547Z,4.67
2019-05-25T19:28:39.782Z,4.60
2019-05-25T19:31:07.265Z,4.72
2019-05-25T19:33:34.444Z,4.85
2019-05-25T19:36:03.746Z,4.97
2019-05-25T19:38:31.304Z,5.05
2019-05-25T19:40:58.852Z,5.08
2019-05-25T19:43:27.453Z,5.12
2019-05-25T19:45:54.461Z,5.25
2019-05-25T19:48:21.524Z,5.40
2019-05-25T19:50:48.692Z,5.60
2019-05-25T19:53:16.628Z,5.45
2019-05-25T19:55:44.253Z,5.25
2019-05-25T19:58:11.352Z,5.45
2019-05-25T20:00:39.689Z,5.45
2019-05-25T20:03:06.665Z,5.67
2019-05-25T20:05:34.766Z,5.60
2019-05-25T20:08:02.207Z,5.50
2019-05-25T20:10:29.850Z,5.00
2019-05-25T20:12:57.238Z,4.95
2019-05-25T20:15:24.251Z,5.05
2019-05-25T20:17:51.691Z,5.28
2019-05-25T20:20:18.785Z,5.83
2019-05-25T20:22:46.349Z,6.08
2019-05-25T20:25:14.367Z,6.10
2019-05-25T20:27:41.591Z,6.22
2019-05-25T20:30:09.710Z,6.40
2019-05-25T20:32:36.893Z,6.55
2019-05-25T20:35:04.141Z,6.50
2019-05-25T20:37:31.777Z,6.67
2019-05-25T20:39:58.840Z,6.95
2019-05-25T20:42:27.141Z,6.72
2019-05-25T20:44:54.177Z,7.30
2019-05-25T20:47:21.526Z,7.12
2019-05-25T20:49:49.183Z,7.33
2019-05-25T20:52:16.256Z,6.72
2019-05-25T20:54:43.690Z,7.42
2019-05-25T20:57:12.456Z,7.67
2019-05-25T20:59:39.621Z,7.62
2019-05-25T21:02:06.707Z,7.70
2019-05-25T21:04:33.690Z,7.92
2019-05-25T21:07:00.953Z,7.85
2019-05-25T21:09:28.097Z,7.28
2019-05-25T21:11:56.211Z,7.42
2019-05-25T21:14:24.057Z,7.70
2019-05-25T21:16:51.432Z,7.60
2019-05-25T21:19:19.061Z,7.35
2019-05-25T21:21:47.261Z,7.08
2019-05-25T21:24:16.302Z,6.60
2019-05-25T21:26:43.513Z,6.53
2019-05-25T21:29:10.711Z,6.15
2019-05-25T21:31:37.798Z,6.20
2019-05-25T21:34:05.432Z,6.72
2019-05-25T21:36:32.617Z,7.30
2019-05-25T21:38:59.664Z,6.92
2019-05-25T21:41:26.869Z,7.00
2019-05-25T21:43:53.977Z,6.62
2019-05-25T21:46:21.166Z,7.00
2019-05-25T21:48:48.771Z,7.33
2019-05-25T21:51:15.996Z,6.83
2019-05-25T21:56:09.972Z,6.47
2019-05-25T21:58:37.076Z,6.65
2019-05-25T22:01:04.982Z,6.20
2019-05-25T22:03:32.144Z,6.95
2019-05-25T22:05:59.660Z,6.53
2019-05-25T22:08:26.842Z,7.08
2019-05-25T22:10:53.934Z,6.67
2019-05-25T22:13:28.464Z,6.97
2019-05-25T22:15:50.599Z,7.30
2019-05-25T22:18:17.821Z,7.83
2019-05-25T22:20:45.289Z,7.50
2019-05-25T22:23:12.460Z,7.67
2019-05-25T22:25:39.689Z,8.15
2019-05-25T22:28:06.741Z,7.90
2019-05-25T22:30:33.746Z,8.25
2019-05-25T22:33:00.930Z,8.40
2019-05-25T22:35:28.055Z,9.05
2019-05-25T22:37:55.324Z,8.13
2019-05-25T22:40:22.463Z,8.60
2019-05-25T22:42:49.537Z,8.30
2019-05-25T22:45:17.271Z,8.60
2019-05-25T22:47:44.433Z,8.35
2019-05-25T22:50:11.695Z,9.05
2019-05-25T22:52:39.153Z,8.83
2019-05-25T22:55:06.403Z,9.10
2019-05-25T22:57:33.556Z,8.95
2019-05-25T23:00:00.998Z,9.00
2019-05-25T23:02:28.027Z,9.35
2019-05-25T23:04:55.209Z,9.43
2019-05-25T23:07:22.641Z,9.83
2019-05-25T23:09:50.312Z,9.60
2019-05-25T23:12:17.484Z,10.40
2019-05-25T23:14:44.937Z,9.80
2019-05-25T23:17:11.998Z,10.45
2019-05-25T23:19:39.104Z,10.25
2019-05-25T23:22:07.201Z,9.90
2019-05-25T23:24:34.777Z,10.65
2019-05-25T23:29:54.972Z,10.32
2019-05-25T23:32:22.213Z,11.08
2019-05-25T23:34:49.652Z,11.97
2019-05-25T23:37:16.787Z,10.95
2019-05-25T23:39:44.503Z,11.00
2019-05-25T23:42:11.708Z,10.53
2019-05-25T23:44:39.393Z,11.95
2019-05-25T23:47:07.795Z,11.38
2019-05-25T23:49:35.245Z,12.03
2019-05-25T23:52:02.484Z,13.03
2019-05-25T23:56:56.180Z,10.82
2019-05-25T23:59:23.710Z,11.83
